Map

Track Data

SID SEASON NUMBER BASIN SUBBASIN NAME ISO_TIME NATURE LAT LON WMO_WIND WMO_PRES WMO_AGENCY TRACK_TYPE DIST2LAND LANDFALL IFLAG USA_AGENCY USA_ATCF_ID USA_LAT USA_LON USA_RECORD USA_STATUS USA_WIND USA_PRES USA_SSHS USA_R34_NE USA_R34_SE USA_R34_SW USA_R34_NW USA_R50_NE USA_R50_SE USA_R50_SW USA_R50_NW USA_R64_NE USA_R64_SE USA_R64_SW USA_R64_NW USA_POCI USA_ROCI USA_RMW USA_EYE TOKYO_LAT TOKYO_LON TOKYO_GRADE TOKYO_WIND TOKYO_PRES TOKYO_R50_DIR TOKYO_R50_LONG TOKYO_R50_SHORT TOKYO_R30_DIR TOKYO_R30_LONG TOKYO_R30_SHORT TOKYO_LAND CMA_LAT CMA_LON CMA_CAT CMA_WIND CMA_PRES HKO_LAT HKO_LON HKO_CAT HKO_WIND HKO_PRES NEWDELHI_LAT NEWDELHI_LON NEWDELHI_GRADE NEWDELHI_WIND NEWDELHI_PRES NEWDELHI_CI NEWDELHI_DP NEWDELHI_POCI REUNION_LAT REUNION_LON REUNION_TYPE REUNION_WIND REUNION_PRES REUNION_TNUM REUNION_CI REUNION_RMW REUNION_R34_NE REUNION_R34_SE REUNION_R34_SW REUNION_R34_NW REUNION_R50_NE REUNION_R50_SE REUNION_R50_SW REUNION_R50_NW REUNION_R64_NE REUNION_R64_SE REUNION_R64_SW REUNION_R64_NW BOM_LAT BOM_LON BOM_TYPE BOM_WIND BOM_PRES BOM_TNUM BOM_CI BOM_RMW BOM_R34_NE BOM_R34_SE BOM_R34_SW BOM_R34_NW BOM_R50_NE BOM_R50_SE BOM_R50_SW BOM_R50_NW BOM_R64_NE BOM_R64_SE BOM_R64_SW BOM_R64_NW BOM_ROCI BOM_POCI BOM_EYE BOM_POS_METHOD BOM_PRES_METHOD NADI_LAT NADI_LON NADI_CAT NADI_WIND NADI_PRES WELLINGTON_LAT WELLINGTON_LON WELLINGTON_WIND WELLINGTON_PRES DS824_LAT DS824_LON DS824_STAGE DS824_WIND DS824_PRES TD9636_LAT TD9636_LON TD9636_STAGE TD9636_WIND TD9636_PRES TD9635_LAT TD9635_LON TD9635_WIND TD9635_PRES TD9635_ROCI NEUMANN_LAT NEUMANN_LON NEUMANN_CLASS NEUMANN_WIND NEUMANN_PRES MLC_LAT MLC_LON MLC_CLASS MLC_WIND MLC_PRES USA_GUST BOM_GUST BOM_GUST_PER REUNION_GUST REUNION_GUST_PER USA_SEAHGT USA_SEARAD_NE USA_SEARAD_SE USA_SEARAD_SW USA_SEARAD_NW STORM_SPEED STORM_DIR
1909194N19126 1909 33 WP MM NOT_NAMED 1909-07-12 16:00:00 NR 18.7000 126.000 main 391 307 __________O___ -1 18.7000 126.000 7 22 270
1909194N19126 1909 33 WP MM NOT_NAMED 1909-07-12 18:00:00 NR 18.6973 125.217 main 307 192 __________P___ -1 18.6973 125.217 7 22 270
1909194N19126 1909 33 WP MM NOT_NAMED 1909-07-12 21:00:00 NR 18.6911 124.056 main 192 71 __________P___ -1 18.6911 124.055 7 22 270
1909194N19126 1909 33 WP MM NOT_NAMED 1909-07-13 00:00:00 NR 18.6879 122.925 main 71 33 __________P___ -1 18.6879 122.925 7 21 270
1909194N19126 1909 33 WP MM NOT_NAMED 1909-07-13 03:00:00 NR 18.6944 121.846 main 39 30 __________P___ -1 18.6944 121.846 7 20 271
1909194N19126 1909 33 WP MM NOT_NAMED 1909-07-13 04:00:00 NR 18.7000 121.500 main 24 11 __________O___ -1 18.7000 121.500 4 19 271
1909194N19126 1909 33 WP MM NOT_NAMED 1909-07-13 06:00:00 NR 18.7173 120.833 main 11 11 __________P___ -1 18.7173 120.833 4 18 272
1909194N19126 1909 33 WP MM NOT_NAMED 1909-07-13 09:00:00 NR 18.7575 119.882 main 86 95 __________P___ -1 18.7575 119.882 4 18 273
1909194N19126 1909 33 WP MM NOT_NAMED 1909-07-13 12:00:00 NR 18.8118 118.974 main 174 184 __________P___ -1 18.8118 118.974 4 17 274
1909194N19126 1909 33 WP MM NOT_NAMED 1909-07-13 15:00:00 NR 18.8767 118.092 main 268 278 __________P___ -1 18.8767 118.092 4 17 275
1909194N19126 1909 33 WP MM NOT_NAMED 1909-07-13 16:00:00 NR 18.9000 117.800 main 298 298 __________O___ -1 18.9000 117.800 4 17 274
1909194N19126 1909 33 WP MM NOT_NAMED 1909-07-13 18:00:00 NR 18.9440 117.179 main 358 367 __________P___ -1 18.9440 117.179 4 18 275
1909194N19126 1909 33 WP MM NOT_NAMED 1909-07-13 21:00:00 NR 19.0168 116.260 main 417 375 __________P___ -1 19.0168 116.260 4 17 275
1909194N19126 1909 33 WP MM NOT_NAMED 1909-07-14 00:00:00 NR 19.0945 115.377 main 375 344 __________P___ -1 19.0945 115.377 4 16 276
1909194N19126 1909 33 WP MM NOT_NAMED 1909-07-14 03:00:00 NR 19.1738 114.556 main 344 330 __________P___ -1 19.1738 114.556 4 15 276
1909194N19126 1909 33 WP MM NOT_NAMED 1909-07-14 04:00:00 NR 19.2000 114.300 main 330 297 __________O___ -1 19.2000 114.300 4 14 276
1909194N19126 1909 33 WP MM NOT_NAMED 1909-07-14 06:00:00 NR 19.2432 113.829 main 297 233 __________P___ -1 19.2432 113.829 4 13 276
1909194N19126 1909 33 WP MM NOT_NAMED 1909-07-14 09:00:00 NR 19.3090 113.185 main 233 169 __________P___ -1 19.3090 113.185 4 12 277
1909194N19126 1909 33 WP MM NOT_NAMED 1909-07-14 12:00:00 NR 19.3819 112.586 main 169 105 __________P___ -1 19.3819 112.586 4 11 278
1909194N19126 1909 33 WP MM NOT_NAMED 1909-07-14 15:00:00 NR 19.4676 111.999 main 105 84 __________P___ -1 19.4676 111.999 4 11 279
1909194N19126 1909 33 WP MM NOT_NAMED 1909-07-14 16:00:00 NR 19.5000 111.800 main 84 41 __________O___ -1 19.5000 111.800 4 12 279
1909194N19126 1909 33 WP MM NOT_NAMED 1909-07-14 18:00:00 NR 19.5694 111.352 main 41 0 __________P___ -1 19.5694 111.352 4 13 280
1909194N19126 1909 33 WP MM NOT_NAMED 1909-07-14 21:00:00 NR 19.6861 110.672 main 0 0 __________P___ -1 19.6861 110.672 4 13 281
1909194N19126 1909 33 WP MM NOT_NAMED 1909-07-15 00:00:00 NR 19.8149 110.009 main 0 0 __________P___ -1 19.8149 110.009 4 12 282
1909194N19126 1909 33 WP MM NOT_NAMED 1909-07-15 03:00:00 NR 19.9526 109.391 main 15 15 __________P___ -1 19.9526 109.391 4 12 284
1909194N19126 1909 33 WP MM NOT_NAMED 1909-07-15 04:00:00 NR 20.0000 109.200 main 24 24 __________O___ -1 20.0000 109.200 4 10 285
1909194N19126 1909 33 WP MM NOT_NAMED 1909-07-15 06:00:00 NR 20.0855 108.854 main 53 61 __________P___ -1 20.0855 108.854 4 10 286
1909194N19126 1909 33 WP MM NOT_NAMED 1909-07-15 09:00:00 NR 20.2207 108.385 main 94 91 __________P___ -1 20.2207 108.385 4 9 289
1909194N19126 1909 33 WP MM NOT_NAMED 1909-07-15 12:00:00 NR 20.3696 107.956 main 91 54 __________P___ -1 20.3696 107.956 4 9 292
1909194N19126 1909 33 WP MM NOT_NAMED 1909-07-15 15:00:00 NR 20.5384 107.540 main 54 39 __________P___ -1 20.5384 107.540 4 9 294
1909194N19126 1909 33 WP MM NOT_NAMED 1909-07-15 16:00:00 NR 20.6000 107.400 main 39 22 __________O___ -1 20.6000 107.400 4 9 296
1909194N19126 1909 33 WP MM NOT_NAMED 1909-07-15 18:00:00 NR 20.7320 107.114 main 24 0 __________P___ -1 20.7320 107.114 4 9 297
1909194N19126 1909 33 WP MM NOT_NAMED 1909-07-15 21:00:00 NR 20.9482 106.672 main 0 0 __________P___ -1 20.9482 106.672 4 10 298
1909194N19126 1909 33 WP MM NOT_NAMED 1909-07-16 00:00:00 NR 21.1797 106.217 main 0 0 __________P___ -1 21.1797 106.217 4 10 299
1909194N19126 1909 33 WP MM NOT_NAMED 1909-07-16 03:00:00 NR 21.4195 105.755 main 0 0 __________P___ -1 21.4195 105.755 4 10 299
1909194N19126 1909 33 WP MM NOT_NAMED 1909-07-16 04:00:00 NR 21.5000 105.600 main 0 __________O___ -1 21.5000 105.600 4 10 300

Digital Typhoon Data and Search

About IBTrACS Database

This database is a web-friendly format of International Best Track Archive for Climate Stewardship (IBTrACS), a global best track data archive curated by NOAA dating back to 1842.

Updated: 2021-11-26